Time;durP1;ratioP1;P1;durP2;ratioP2;P2;SDS_P1;SDS_P2;PMS_P1;PMS_P2;Temp;Humidity;BMP_temperature;BMP_pressure;BME280_temperature;BME280_humidity;BME280_pressure;Samples;Min_cycle;Max_cycle;Signal;HPM_P1;HPM_P2
2023/04/03 06:55:06;;;;;;;;;4.75;4.75;;;;;17.63;49.94;102303.59;5115013;27;45747;-75
2023/04/03 06:57:31;;;;;;;;;7.00;5.50;;;;;18.26;50.91;102316.91;5106102;27;45566;-75
2023/04/03 06:59:57;;;;;;;;;5.25;5.00;;;;;19.11;51.43;102314.31;5117135;27;46039;-75
2023/04/03 07:02:22;;;;;;;;;7.75;5.75;;;;;19.99;50.97;102318.38;5103076;27;48315;-75
2023/04/03 07:04:47;;;;;;;;;5.50;3.75;;;;;20.80;51.18;102318.94;5104251;27;46018;-75
2023/04/03 07:07:13;;;;;;;;;5.00;5.00;;;;;21.56;50.62;102330.56;5110137;27;45534;-75
2023/04/03 07:09:38;;;;;;;;;4.00;4.00;;;;;22.22;49.75;102327.31;5110343;27;45470;-75
2023/04/03 07:12:03;;;;;;;;;4.00;4.00;;;;;22.78;49.26;102324.75;5111263;27;45457;-74
2023/04/03 07:14:29;;;;;;;;;3.75;3.75;;;;;23.26;48.49;102322.66;5109344;27;45502;-75
2023/04/03 07:16:54;;;;;;;;;5.00;5.00;;;;;23.69;47.87;102318.19;5110056;27;45477;-75
2023/04/03 07:19:21;;;;;;;;;4.75;3.25;;;;;24.08;47.63;102320.31;5111562;27;45446;-75
2023/04/03 07:21:46;;;;;;;;;3.33;3.33;;;;;24.36;47.21;102314.31;5108760;27;45404;-74
2023/04/03 07:24:12;;;;;;;;;5.00;5.00;;;;;24.67;46.65;102331.44;5110201;27;46151;-74
2023/04/03 07:26:37;;;;;;;;;6.00;3.67;;;;;24.93;46.20;102327.41;5109188;27;45461;-77
2023/04/03 07:29:02;;;;;;;;;6.33;6.33;;;;;25.13;45.88;102323.69;5110031;27;45486;-73
2023/04/03 07:31:28;;;;;;;;;3.67;3.67;;;;;25.32;45.39;102329.28;5110323;27;45390;-73
2023/04/03 07:33:53;;;;;;;;;5.00;5.00;;;;;25.49;44.76;102327.72;5106021;27;46317;-73
2023/04/03 07:36:21;;;;;;;;;6.67;5.33;;;;;25.63;44.73;102335.47;5109444;27;45433;-74
2023/04/03 07:38:47;;;;;;;;;4.00;4.00;;;;;25.78;44.60;102333.16;5110857;27;45379;-73
2023/04/03 07:41:17;;;;;;;;;6.00;5.00;;;;;25.89;44.67;102325.84;5099327;27;48475;-73
2023/04/03 07:43:43;;;;;;;;;5.33;4.00;;;;;26.00;43.88;102325.66;5109648;27;45306;-73
2023/04/03 07:46:09;;;;;;;;;4.67;4.67;;;;;26.07;43.57;102327.81;5097591;27;46622;-77
2023/04/03 07:48:35;;;;;;;;;5.00;5.00;;;;;26.17;43.62;102339.53;5114501;27;45472;-77
2023/04/03 07:51:01;;;;;;;;;6.00;5.00;;;;;26.21;42.70;102337.34;5096214;27;45601;-77
2023/04/03 07:53:27;;;;;;;;;6.00;6.00;;;;;26.27;42.82;102334.06;5105307;27;46361;-79
2023/04/03 07:55:55;;;;;;;;;5.67;5.67;;;;;26.30;42.86;102344.66;5097281;27;45489;-79
2023/04/03 07:58:20;;;;;;;;;6.67;5.33;;;;;26.32;42.40;102337.19;5105367;27;45447;-75
2023/04/03 08:00:46;;;;;;;;;4.67;4.33;;;;;26.34;42.06;102339.78;5106794;27;45533;-78
2023/04/03 08:03:12;;;;;;;;;7.00;6.33;;;;;26.36;42.12;102330.44;5110635;27;45929;-74
2023/04/03 08:05:42;;;;;;;;;6.00;6.00;;;;;26.38;41.95;102339.34;5100304;27;45652;-74
2023/04/03 08:08:10;;;;;;;;;6.00;6.00;;;;;26.41;41.71;102333.56;5094436;27;45484;-74
2023/04/03 08:10:36;;;;;;;;;4.00;4.00;;;;;26.45;41.78;102334.16;5087626;27;45401;-73
2023/04/03 08:13:01;;;;;;;;;4.00;4.00;;;;;26.51;41.15;102330.81;5104157;27;46512;-74
2023/04/03 08:15:27;;;;;;;;;3.00;3.00;;;;;26.54;41.56;102329.66;5090396;27;45334;-73
2023/04/03 08:17:54;;;;;;;;;4.67;4.00;;;;;26.55;41.59;102320.47;5096619;27;45319;-73
2023/04/03 08:20:19;;;;;;;;;5.33;4.33;;;;;26.63;40.85;102336.94;5095270;27;45838;-73
2023/04/03 08:22:45;;;;;;;;;5.67;5.67;;;;;26.66;40.75;102333.91;5094882;27;46071;-73
2023/04/03 08:25:10;;;;;;;;;5.00;4.67;;;;;26.73;40.47;102327.84;5089419;27;45711;-73
2023/04/03 08:27:35;;;;;;;;;6.67;5.00;;;;;26.76;40.87;102336.56;5091657;27;45553;-73
2023/04/03 08:30:01;;;;;;;;;5.33;5.33;;;;;26.77;40.33;102326.53;5096343;27;45485;-75
2023/04/03 08:32:27;;;;;;;;;4.00;4.00;;;;;26.78;39.99;102328.25;5095618;27;45430;-76
2023/04/03 08:34:52;;;;;;;;;3.33;3.33;;;;;26.81;40.28;102334.25;5095661;27;45776;-75
2023/04/03 08:37:18;;;;;;;;;6.00;5.00;;;;;26.83;40.10;102325.94;5096488;27;45828;-75
2023/04/03 08:39:44;;;;;;;;;4.00;3.33;;;;;26.84;39.69;102325.78;5096070;27;45621;-75
2023/04/03 08:42:30;;;;;;;;;5.33;5.33;;;;;26.88;39.95;102333.63;5094028;27;46177;-76
2023/04/03 08:45:08;;;;;;;;;5.33;4.00;;;;;26.89;40.02;102328.03;5085033;27;45664;-75
2023/04/03 08:47:46;;;;;;;;;5.33;5.33;;;;;26.90;39.53;102337.06;5094481;27;45439;-73
2023/04/03 08:50:18;;;;;;;;;3.00;3.00;;;;;26.87;39.82;102332.78;5092902;27;45696;-73
2023/04/03 08:52:54;;;;;;;;;3.33;3.33;;;;;26.93;39.69;102337.66;5095573;27;46050;-74
2023/04/03 08:55:26;;;;;;;;;5.33;4.00;;;;;26.96;39.45;102333.75;5101190;27;45367;-73
2023/04/03 08:58:00;;;;;;;;;4.67;4.67;;;;;27.00;39.48;102334.28;5095445;27;45434;-72
2023/04/03 09:00:30;;;;;;;;;3.67;3.67;;;;;27.01;39.41;102325.13;5094251;27;45309;-73
2023/04/03 09:02:56;;;;;;;;;3.33;3.33;;;;;27.03;39.04;102326.69;5095512;27;45552;-73
2023/04/03 09:05:42;;;;;;;;;5.00;4.00;;;;;27.08;38.92;102327.09;5095297;27;45418;-73
2023/04/03 09:08:21;;;;;;;;;2.67;2.67;;;;;27.12;38.81;102338.53;5095015;27;45567;-73
2023/04/03 09:10:46;;;;;;;;;2.67;2.67;;;;;27.11;38.67;102331.38;5095151;27;45537;-74
2023/04/03 09:13:26;;;;;;;;;2.00;2.00;;;;;27.14;38.48;102327.47;5094255;27;45493;-72
2023/04/03 09:15:53;;;;;;;;;3.00;3.00;;;;;27.17;38.47;102332.59;5093573;27;45546;-73
2023/04/03 09:18:41;;;;;;;;;4.00;2.00;;;;;27.19;38.66;102339.63;5087404;27;45377;-73
2023/04/03 09:21:10;;;;;;;;;4.33;3.00;;;;;27.22;38.20;102338.47;5078751;27;45687;-76
2023/04/03 09:23:52;;;;;;;;;3.33;3.33;;;;;27.22;38.04;102325.69;5085383;27;45533;-75
2023/04/03 09:26:30;;;;;;;;;4.00;4.00;;;;;27.21;38.06;102329.41;5092452;27;45576;-76
2023/04/03 09:29:00;;;;;;;;;3.00;3.00;;;;;27.20;37.90;102327.72;5091504;27;45467;-76
2023/04/03 09:31:30;;;;;;;;;3.00;3.00;;;;;27.20;37.79;102338.63;5087762;27;45488;-76
2023/04/03 09:34:02;;;;;;;;;3.00;3.00;;;;;27.19;38.36;102334.19;5087209;27;45639;-76
2023/04/03 09:36:43;;;;;;;;;3.00;3.00;;;;;27.19;38.05;102327.88;5081668;27;45770;-76
2023/04/03 09:39:16;;;;;;;;;2.00;2.00;;;;;27.17;37.60;102322.56;5084003;27;45530;-76
2023/04/03 09:41:56;;;;;;;;;3.00;3.00;;;;;27.19;37.49;102334.19;5094717;27;45639;-76
2023/04/03 09:44:27;;;;;;;;;3.67;2.33;;;;;27.20;37.41;102326.84;5088685;27;46242;-76
2023/04/03 09:46:52;;;;;;;;;2.00;2.00;;;;;27.19;37.30;102323.28;5086464;27;45862;-75
2023/04/03 09:49:18;;;;;;;;;3.33;2.00;;;;;27.23;37.93;102335.56;5093260;27;45588;-75
2023/04/03 09:51:45;;;;;;;;;3.00;3.00;;;;;27.19;37.73;102325.13;5088217;27;45854;-74
2023/04/03 09:54:26;;;;;;;;;3.00;3.00;;;;;27.24;36.52;102347.34;5094338;27;46394;-75
2023/04/03 09:56:55;;;;;;;;;3.67;3.67;;;;;27.22;37.29;102327.56;5100546;27;45712;-76
2023/04/03 09:59:21;;;;;;;;;3.00;3.00;;;;;27.20;36.89;102329.56;5081159;27;45458;-74
2023/04/03 10:02:19;;;;;;;;;3.00;3.00;;;;;27.23;37.26;102343.75;5094954;27;45418;-74
2023/04/03 10:04:44;;;;;;;;;2.00;2.00;;;;;27.23;36.61;102334.72;5093507;27;45596;-74
2023/04/03 10:07:46;;;;;;;;;2.33;2.33;;;;;27.23;37.38;102332.84;5093977;27;45416;-74
2023/04/03 10:10:14;;;;;;;;;3.00;3.00;;;;;27.26;36.57;102334.38;5031094;28;45464;-74
2023/04/03 10:12:40;;;;;;;;;3.33;3.33;;;;;27.27;37.22;102318.91;5031475;28;45531;-79
2023/04/03 10:15:12;;;;;;;;;2.00;2.00;;;;;27.29;36.42;102319.59;5030635;28;45713;-81
2023/04/03 10:17:53;;;;;;;;;2.00;2.00;;;;;27.29;36.92;102320.47;5031442;28;45539;-76
2023/04/03 10:20:24;;;;;;;;;2.00;2.00;;;;;27.31;36.42;102314.84;5030834;28;45575;-76
2023/04/03 10:23:22;;;;;;;;;3.00;3.00;;;;;27.35;36.74;102321.72;5030580;28;45496;-75
2023/04/03 10:26:06;;;;;;;;;2.67;2.00;;;;;27.37;36.87;102311.50;5029613;28;45456;-76
2023/04/03 10:28:56;;;;;;;;;2.33;2.33;;;;;27.39;36.20;102300.44;5030669;28;45861;-75
2023/04/03 10:31:37;;;;;;;;;3.00;3.00;;;;;27.45;36.47;102313.44;5031350;28;45534;-75
2023/04/03 10:34:12;;;;;;;;;3.33;3.33;;;;;27.44;35.99;102296.25;5030789;28;45572;-77
2023/04/03 10:36:53;;;;;;;;;2.33;2.33;;;;;27.46;36.06;102287.91;5030530;28;46240;-74
2023/04/03 10:39:27;;;;;;;;;2.00;2.00;;;;;27.46;36.54;102287.91;5028839;28;45505;-74
2023/04/03 10:42:10;;;;;;;;;3.00;3.00;;;;;27.48;36.05;102277.69;5025444;28;45606;-75
2023/04/03 10:45:07;;;;;;;;;2.00;2.00;;;;;27.49;36.22;102282.13;5053723;27;45459;-75
2023/04/03 10:47:59;;;;;;;;;4.00;4.00;;;;;27.51;35.91;102274.66;5080554;27;46225;-76
2023/04/03 10:50:51;;;;;;;;;2.00;2.00;;;;;27.54;35.62;102265.28;5084822;27;45553;-76
2023/04/03 10:53:24;;;;;;;;;2.00;2.00;;;;;27.56;36.21;102269.56;5087981;27;45459;-75
2023/04/03 10:56:08;;;;;;;;;3.33;3.33;;;;;27.60;35.51;102268.28;5076175;27;45884;-79
2023/04/03 10:58:39;;;;;;;;;2.00;2.00;;;;;27.62;35.46;102255.31;5086202;27;45724;-76
2023/04/03 11:01:14;;;;;;;;;3.00;3.00;;;;;27.63;35.95;102253.47;5093096;27;45414;-76
2023/04/03 11:03:45;;;;;;;;;4.00;2.33;;;;;27.64;35.96;102251.56;5091204;27;45499;-76
2023/04/03 11:06:14;;;;;;;;;3.00;3.00;;;;;27.70;35.29;102264.56;5091354;27;45488;-76
2023/04/03 11:09:03;;;;;;;;;4.00;2.67;;;;;27.74;35.62;102271.41;5090930;27;45992;-76
2023/04/03 11:11:35;;;;;;;;;1.00;1.00;;;;;27.75;35.11;102260.34;5091981;27;45487;-75
2023/04/03 11:14:08;;;;;;;;;1.33;1.33;;;;;27.75;35.37;102248.59;5082344;27;45831;-76
2023/04/03 11:16:41;;;;;;;;;2.33;2.33;;;;;27.78;34.98;102248.25;5079518;27;45715;-75
2023/04/03 11:19:35;;;;;;;;;2.00;2.00;;;;;27.79;35.03;102244.50;5091210;27;45942;-77
2023/04/03 11:22:13;;;;;;;;;1.00;1.00;;;;;27.80;34.97;102246.25;5090105;27;45536;-74
2023/04/03 11:24:43;;;;;;;;;2.33;2.33;;;;;27.80;35.56;102239.91;5085983;27;45453;-76
2023/04/03 11:27:22;;;;;;;;;2.00;2.00;;;;;27.79;35.13;102239.03;5088498;27;45940;-77
2023/04/03 11:29:49;;;;;;;;;4.00;2.00;;;;;27.78;35.33;102236.50;5091940;27;47025;-78
2023/04/03 11:32:56;;;;;;;;;1.67;1.67;;;;;27.79;35.34;102235.47;5093731;27;46384;-75
2023/04/03 11:35:24;;;;;;;;;2.00;2.00;;;;;27.78;35.19;102231.06;5099829;27;45554;-75
2023/04/03 11:37:52;;;;;;;;;2.00;2.00;;;;;27.81;34.79;102228.84;5093172;27;45470;-74
2023/04/03 11:40:33;;;;;;;;;2.00;2.00;;;;;27.85;34.40;102218.47;5093889;27;45484;-75
2023/04/03 11:42:58;;;;;;;;;2.33;2.33;;;;;27.87;34.86;102228.19;5085331;27;46373;-74
2023/04/03 11:45:27;;;;;;;;;3.00;2.33;;;;;27.90;34.63;102224.28;5086177;27;45625;-74
2023/04/03 11:47:53;;;;;;;;;2.33;2.33;;;;;27.92;34.84;102225.00;5097051;27;45436;-74
2023/04/03 11:50:34;;;;;;;;;3.00;3.00;;;;;27.95;34.74;102215.63;5084472;27;46499;-76
2023/04/03 11:53:02;;;;;;;;;1.67;1.67;;;;;27.97;34.43;102205.38;5096312;27;45687;-79
2023/04/03 11:55:30;;;;;;;;;2.00;2.00;;;;;27.99;34.89;102211.53;5096049;27;45483;-76
2023/04/03 11:57:58;;;;;;;;;1.67;1.67;;;;;27.99;34.89;102206.94;5080464;27;46556;-83
2023/04/03 12:00:50;;;;;;;;;4.33;3.00;;;;;28.01;34.73;102214.97;5095343;27;45852;-83
2023/04/03 12:03:31;;;;;;;;;4.00;4.00;;;;;27.99;34.68;102212.38;5079415;27;45788;-91
2023/04/03 12:06:14;;;;;;;;;2.00;2.00;;;;;27.99;34.73;102204.19;5082573;27;45567;-83
2023/04/03 12:08:40;;;;;;;;;2.00;2.00;;;;;27.96;34.01;102201.78;5086457;27;45585;-84
2023/04/03 12:11:08;;;;;;;;;2.00;2.00;;;;;27.95;33.97;102202.81;5086020;27;45768;-82
2023/04/03 12:13:35;;;;;;;;;2.67;2.00;;;;;27.91;34.12;102198.69;5082532;27;45672;-82
2023/04/03 12:16:03;;;;;;;;;1.67;1.67;;;;;27.90;34.10;102201.63;5081849;27;45576;-82
2023/04/03 12:18:58;;;;;;;;;3.00;3.00;;;;;27.92;33.88;102191.38;5086372;27;46873;-82
2023/04/03 12:21:29;;;;;;;;;1.00;1.00;;;;;27.91;34.30;102181.50;5086878;27;47290;-81
2023/04/03 12:24:01;;;;;;;;;1.67;1.67;;;;;27.89;34.18;102178.94;5084988;27;45603;-81
2023/04/03 12:26:31;;;;;;;;;2.67;1.00;;;;;27.78;34.21;102169.16;5079837;27;45360;-81
2023/04/03 12:28:57;;;;;;;;;3.00;3.00;;;;;27.85;33.91;102192.03;5082021;27;45388;-81
2023/04/03 12:31:25;;;;;;;;;1.00;1.00;;;;;27.84;33.63;102179.41;5085150;27;45512;-81
2023/04/03 12:34:17;;;;;;;;;2.00;2.00;;;;;27.83;33.69;102177.69;5084772;27;45517;-81
2023/04/03 12:36:47;;;;;;;;;2.00;2.00;;;;;27.83;34.16;102174.97;5083428;27;45527;-81
2023/04/03 12:39:33;;;;;;;;;1.67;1.67;;;;;27.82;34.12;102192.34;5096499;27;45477;-82
2023/04/03 12:42:06;;;;;;;;;2.67;2.67;;;;;27.83;33.51;102182.31;5080079;27;46177;-82
2023/04/03 12:44:44;;;;;;;;;1.67;1.67;;;;;27.81;33.82;102179.75;5096106;27;45576;-82
2023/04/03 12:47:23;;;;;;;;;2.00;2.00;;;;;27.80;33.99;102171.72;5082077;27;45497;-82
2023/04/03 12:49:50;;;;;;;;;1.33;1.33;;;;;27.84;34.05;102190.31;5081137;27;45847;-81
2023/04/03 12:52:30;;;;;;;;;2.00;2.00;;;;;27.84;33.79;102176.66;5091875;27;46353;-75
2023/04/03 12:54:56;;;;;;;;;2.00;2.00;;;;;27.86;33.49;102176.50;5087580;27;45780;-73
2023/04/03 12:57:27;;;;;;;;;2.00;2.00;;;;;27.94;33.66;102171.09;5093657;27;45581;-74
2023/04/03 12:59:52;;;;;;;;;3.00;2.00;;;;;28.00;33.40;102159.53;5091125;27;45495;-75
2023/04/03 13:02:26;;;;;;;;;2.00;2.00;;;;;28.14;33.58;102165.38;5095101;27;45674;-74
2023/04/03 13:04:53;;;;;;;;;2.00;2.00;;;;;28.26;33.39;102155.03;5093113;27;45605;-74
2023/04/03 13:07:27;;;;;;;;;2.00;2.00;;;;;28.34;33.49;102156.91;5094890;27;45495;-75
2023/04/03 13:09:57;;;;;;;;;2.00;2.00;;;;;28.46;33.94;102160.19;5093483;27;45409;-74
2023/04/03 13:12:22;;;;;;;;;2.00;2.00;;;;;28.54;33.45;102157.47;5082853;27;46169;-79
2023/04/03 13:15:15;;;;;;;;;2.00;2.00;;;;;28.59;33.68;102140.56;5083667;27;45427;-77
2023/04/03 13:17:42;;;;;;;;;4.33;3.00;;;;;28.69;33.46;102143.97;5094815;27;45445;-79
2023/04/03 13:20:23;;;;;;;;;2.33;2.33;;;;;28.78;33.72;102144.88;5090886;27;45431;-76
2023/04/03 13:22:56;;;;;;;;;1.67;1.67;;;;;28.81;33.17;102139.03;5091111;27;45710;-76
2023/04/03 13:25:24;;;;;;;;;2.00;2.00;;;;;28.89;33.14;102143.69;5090302;27;45433;-77
2023/04/03 13:27:50;;;;;;;;;2.00;2.00;;;;;28.94;33.14;102144.03;5090526;27;45375;-78
2023/04/03 13:30:26;;;;;;;;;1.00;1.00;;;;;29.01;33.34;102147.78;5091714;27;45822;-75
2023/04/03 13:32:53;;;;;;;;;1.00;1.00;;;;;29.08;33.62;102138.88;5088454;27;46581;-77
2023/04/03 13:35:28;;;;;;;;;1.67;1.67;;;;;29.13;33.21;102142.81;5094029;27;45440;-74
2023/04/03 13:37:56;;;;;;;;;1.67;1.67;;;;;29.15;32.88;102135.31;5095147;27;45397;-79
2023/04/03 13:40:22;;;;;;;;;0.67;0.67;;;;;29.20;32.97;102140.25;5081054;27;45584;-76
2023/04/03 13:43:00;;;;;;;;;2.00;2.00;;;;;29.24;32.91;102138.88;5090977;27;46088;-75
2023/04/03 13:45:29;;;;;;;;;2.00;2.00;;;;;29.29;33.25;102138.34;5089444;27;45541;-75
2023/04/03 13:48:18;;;;;;;;;3.00;1.33;;;;;29.33;33.54;102126.03;5088449;27;45613;-75
2023/04/03 13:51:13;;;;;;;;;2.00;2.00;;;;;29.39;33.02;102122.56;5084590;27;45726;-75
2023/04/03 13:53:52;;;;;;;;;2.00;2.00;;;;;29.43;33.01;102129.41;5073378;27;45682;-80
2023/04/03 13:56:23;;;;;;;;;1.33;1.33;;;;;29.47;33.02;102135.41;5085135;27;45609;-81
2023/04/03 13:58:56;;;;;;;;;1.00;1.00;;;;;29.49;33.21;102124.25;5090936;27;45387;-79
2023/04/03 14:01:23;;;;;;;;;2.33;2.00;;;;;29.46;33.13;102109.06;5094115;27;45494;-78
2023/04/03 14:04:10;;;;;;;;;1.00;1.00;;;;;29.41;32.83;102106.00;5092246;27;45426;-75
2023/04/03 14:06:35;;;;;;;;;1.00;1.00;;;;;29.48;32.96;102106.16;5088713;27;45394;-76
2023/04/03 14:09:01;;;;;;;;;3.00;3.00;;;;;29.50;33.12;102106.84;5087290;27;45456;-79
2023/04/03 14:11:30;;;;;;;;;1.67;1.67;;;;;29.51;32.91;102103.09;5095836;27;45560;-77
2023/04/03 14:14:00;;;;;;;;;1.33;1.00;;;;;29.53;33.14;102103.78;5091896;27;46295;-75
2023/04/03 14:16:29;;;;;;;;;1.00;1.00;;;;;29.56;32.88;102106.16;5094179;27;45481;-75
2023/04/03 14:18:54;;;;;;;;;1.00;1.00;;;;;29.58;32.58;102094.00;5088220;27;45956;-75
2023/04/03 14:21:21;;;;;;;;;2.00;1.67;;;;;29.61;32.63;102106.47;5106297;27;45643;-76
2023/04/03 14:23:47;;;;;;;;;2.00;2.00;;;;;29.64;32.52;102100.66;5090986;27;46067;-82
2023/04/03 14:26:17;;;;;;;;;1.00;1.00;;;;;29.67;32.67;102099.47;5093672;27;45813;-85
2023/04/03 14:28:44;;;;;;;;;1.67;1.00;;;;;29.62;32.44;102099.13;5090010;27;45436;-81
2023/04/03 14:31:11;;;;;;;;;1.33;1.33;;;;;29.55;32.43;102090.78;5093094;27;45479;-82
2023/04/03 14:33:38;;;;;;;;;0.67;0.67;;;;;29.45;32.33;102090.94;5092000;27;45441;-76
2023/04/03 14:36:25;;;;;;;;;2.00;2.00;;;;;29.37;32.40;102080.91;5088891;27;45618;-76
2023/04/03 14:38:51;;;;;;;;;1.00;1.00;;;;;29.34;32.38;102083.97;5095444;27;45728;-90
2023/04/03 14:41:20;;;;;;;;;0.67;0.67;;;;;29.30;32.37;102068.97;5084807;27;45582;-89
2023/04/03 14:43:46;;;;;;;;;3.00;1.67;;;;;29.24;32.25;102084.19;5079910;27;47395;-89
2023/04/03 14:46:15;;;;;;;;;2.00;0.67;;;;;29.18;31.72;102077.53;5084830;27;45540;-87
2023/04/03 14:48:41;;;;;;;;;1.00;1.00;;;;;29.10;31.84;102065.78;5084826;27;45414;-87
2023/04/03 14:51:07;;;;;;;;;1.67;1.67;;;;;29.01;31.82;102074.00;5079696;27;45559;-89
2023/04/03 14:53:32;;;;;;;;;1.33;1.33;;;;;28.98;32.40;102071.59;5081398;27;46164;-89
2023/04/03 14:55:58;;;;;;;;;1.67;1.67;;;;;28.92;31.75;102062.22;5081440;27;45514;-89
2023/04/03 14:58:23;;;;;;;;;1.00;1.00;;;;;28.86;32.15;102065.63;5083134;27;45589;-91
2023/04/03 15:00:49;;;;;;;;;1.00;1.00;;;;;28.79;32.14;102065.47;5082605;27;45967;-91
2023/04/03 15:03:21;;;;;;;;;1.00;1.00;;;;;28.74;31.87;102067.88;5082580;27;45808;-92
2023/04/03 15:05:48;;;;;;;;;2.00;2.00;;;;;28.65;31.53;102052.50;5076967;27;45345;-91
2023/04/03 15:08:25;;;;;;;;;0.00;0.00;;;;;28.66;31.58;102054.22;5079047;27;46007;-88
2023/04/03 15:10:55;;;;;;;;;1.00;1.00;;;;;28.58;31.47;102049.59;5083672;27;45590;-89
2023/04/03 15:13:21;;;;;;;;;1.00;1.00;;;;;28.59;31.74;102051.31;5085347;27;47109;-90
2023/04/03 15:15:47;;;;;;;;;3.00;1.33;;;;;28.52;31.95;102055.72;5088616;27;45407;-90
2023/04/03 15:18:19;;;;;;;;;0.67;0.67;;;;;28.52;31.57;102063.94;5088749;27;45376;-91
2023/04/03 15:20:45;;;;;;;;;1.00;1.00;;;;;28.46;31.91;102054.56;5092724;27;45599;-91
2023/04/03 15:23:12;;;;;;;;;1.50;1.50;;;;;28.44;31.73;102051.13;5086472;27;46830;-91
2023/04/03 15:25:39;;;;;;;;;1.00;1.00;;;;;28.43;32.11;102068.53;5087187;27;45453;-90
2023/04/03 15:28:05;;;;;;;;;1.00;1.00;;;;;28.36;31.43;102054.72;5088132;27;45742;-90
2023/04/03 15:30:31;;;;;;;;;1.00;1.00;;;;;28.37;31.93;102061.03;5088359;27;47093;-78
2023/04/03 15:32:56;;;;;;;;;1.00;1.00;;;;;28.37;31.67;102053.69;5086720;27;46196;-74
2023/04/03 15:35:22;;;;;;;;;0.00;0.00;;;;;28.43;31.72;102049.44;5096073;27;45490;-73
2023/04/03 15:37:48;;;;;;;;;5.00;3.00;;;;;28.52;31.57;102058.47;5093494;27;45496;-75
2023/04/03 15:40:13;;;;;;;;;2.00;2.00;;;;;28.57;31.96;102060.69;5090816;27;45506;-75
2023/04/03 15:42:39;;;;;;;;;1.00;0.67;;;;;28.68;31.69;102052.13;5094901;27;46156;-76
2023/04/03 15:45:06;;;;;;;;;1.00;1.00;;;;;28.74;31.88;102056.06;5084414;27;45443;-75
2023/04/03 15:47:31;;;;;;;;;3.00;3.00;;;;;28.82;31.86;102067.00;5085414;27;45461;-75
2023/04/03 15:49:57;;;;;;;;;2.00;2.00;;;;;28.87;31.70;102066.47;5098152;27;45512;-79
2023/04/03 15:52:23;;;;;;;;;3.00;3.00;;;;;28.90;31.56;102071.63;5082453;27;46178;-86
2023/04/03 15:54:48;;;;;;;;;3.33;3.00;;;;;28.89;31.13;102054.38;5095587;27;45424;-85
2023/04/03 15:57:14;;;;;;;;;1.67;1.67;;;;;28.85;31.20;102063.06;5100503;27;45579;-84
2023/04/03 15:59:39;;;;;;;;;2.00;2.00;;;;;28.79;31.37;102068.19;5093554;27;45493;-85
2023/04/03 16:02:08;;;;;;;;;1.00;1.00;;;;;28.72;31.13;102058.13;5093952;27;49826;-83
2023/04/03 16:04:34;;;;;;;;;1.33;1.00;;;;;28.64;31.49;102067.16;5096704;27;45501;-85
2023/04/03 16:07:03;;;;;;;;;1.00;1.00;;;;;28.58;31.24;102066.00;5096563;27;45539;-84
2023/04/03 16:09:29;;;;;;;;;4.00;4.00;;;;;28.49;31.57;102058.81;5091159;27;45311;-83
2023/04/03 16:11:54;;;;;;;;;4.67;2.67;;;;;28.45;31.73;102058.31;5087283;27;46326;-78
2023/04/03 16:14:19;;;;;;;;;2.67;2.67;;;;;28.36;31.22;102051.97;5081799;27;45906;-82
2023/04/03 16:16:45;;;;;;;;;4.67;2.00;;;;;28.34;31.31;102064.97;5088773;27;45520;-89
2023/04/03 16:19:10;;;;;;;;;3.67;3.67;;;;;28.27;31.47;102061.19;5095366;27;45478;-85
2023/04/03 16:21:36;;;;;;;;;1.00;1.00;;;;;28.20;31.68;102052.78;5090620;27;46325;-88
2023/04/03 16:24:02;;;;;;;;;2.33;2.00;;;;;28.12;31.49;102055.53;5091102;27;45657;-90
2023/04/03 16:26:27;;;;;;;;;3.00;3.00;;;;;28.09;31.61;102048.53;5083993;27;45766;-89
2023/04/03 16:28:53;;;;;;;;;5.00;3.00;;;;;28.06;31.67;102053.44;5095642;27;45712;-84
2023/04/03 16:31:19;;;;;;;;;2.00;2.00;;;;;28.12;31.54;102067.28;5082715;27;46042;-84
2023/04/03 16:33:45;;;;;;;;;1.67;1.67;;;;;28.13;31.17;102062.69;5082863;27;45439;-80
2023/04/03 16:36:10;;;;;;;;;2.00;1.33;;;;;28.19;31.10;102061.16;5095430;27;45326;-84
2023/04/03 16:38:35;;;;;;;;;5.00;3.00;;;;;28.20;31.75;102049.22;5092325;27;45360;-81
2023/04/03 16:41:04;;;;;;;;;2.33;2.00;;;;;28.24;31.67;102056.91;5092749;27;46007;-81
2023/04/03 16:43:30;;;;;;;;;2.00;2.00;;;;;28.23;31.36;102049.72;5091681;27;45445;-81
2023/04/03 16:45:55;;;;;;;;;2.00;2.00;;;;;28.24;31.56;102054.19;5084925;27;45570;-83
2023/04/03 16:48:21;;;;;;;;;2.00;2.00;;;;;28.26;31.65;102063.09;5087403;27;45441;-85
2023/04/03 16:50:48;;;;;;;;;2.00;2.00;;;;;28.27;31.38;102050.28;5088367;27;47015;-80
2023/04/03 16:53:14;;;;;;;;;3.00;3.00;;;;;28.24;31.31;102053.31;5087661;27;45515;-80
2023/04/03 16:55:40;;;;;;;;;2.00;2.00;;;;;28.25;31.39;102058.63;5094792;27;45740;-90
2023/04/03 16:58:05;;;;;;;;;2.00;2.00;;;;;28.23;31.48;102047.00;5095327;27;45542;-81
2023/04/03 17:00:31;;;;;;;;;1.67;1.33;;;;;28.22;30.94;102055.34;5090823;27;46306;-82
2023/04/03 17:02:57;;;;;;;;;2.33;2.33;;;;;28.14;31.39;102048.88;5079750;27;45393;-82
2023/04/03 17:05:23;;;;;;;;;2.00;2.00;;;;;28.19;30.90;102056.53;5095446;27;45538;-80
2023/04/03 17:07:49;;;;;;;;;1.00;1.00;;;;;28.20;31.20;102049.22;5093686;27;45697;-80
2023/04/03 17:10:14;;;;;;;;;3.00;1.67;;;;;28.19;30.99;102058.44;5095696;27;46326;-81
2023/04/03 17:12:40;;;;;;;;;5.00;2.00;;;;;28.19;31.18;102061.16;5087056;27;45734;-79
2023/04/03 17:15:06;;;;;;;;;3.33;2.67;;;;;28.19;31.48;102058.44;5091128;27;45489;-83
2023/04/03 17:17:31;;;;;;;;;4.00;2.00;;;;;28.18;31.16;102052.13;5089331;27;45428;-84
2023/04/03 17:19:57;;;;;;;;;2.00;1.33;;;;;28.17;31.89;102046.81;5087104;27;46566;-88
2023/04/03 17:22:22;;;;;;;;;4.33;3.00;;;;;28.14;30.91;102054.34;5080615;27;45774;-88
2023/04/03 17:24:47;;;;;;;;;2.00;2.00;;;;;28.15;31.51;102050.56;5082275;27;45541;-88
2023/04/03 17:27:13;;;;;;;;;2.67;1.00;;;;;28.10;31.10;102044.78;5084346;27;45477;-86
2023/04/03 17:29:38;;;;;;;;;3.00;3.00;;;;;28.11;31.26;102045.59;5083858;27;45597;-87
2023/04/03 17:32:04;;;;;;;;;1.00;1.00;;;;;28.13;31.80;102054.50;5084944;27;45446;-83
2023/04/03 17:34:29;;;;;;;;;1.00;1.00;;;;;28.11;31.09;102061.97;5083848;27;45587;-75
2023/04/03 17:36:54;;;;;;;;;4.67;2.00;;;;;28.09;31.31;102048.53;5084571;27;45793;-77
2023/04/03 17:39:20;;;;;;;;;2.00;2.00;;;;;28.06;31.12;102048.84;5082166;27;45652;-79
2023/04/03 17:41:45;;;;;;;;;1.33;1.33;;;;;28.04;30.99;102050.91;5080772;27;45539;-79
2023/04/03 17:44:11;;;;;;;;;1.67;1.67;;;;;27.99;31.84;102042.34;5082429;27;45557;-80
2023/04/03 17:46:36;;;;;;;;;1.00;1.00;;;;;27.98;31.30;102046.97;5083079;27;45652;-81
2023/04/03 17:49:03;;;;;;;;;2.00;2.00;;;;;28.01;31.07;102056.69;5079224;27;45695;-82
2023/04/03 17:51:29;;;;;;;;;2.00;1.33;;;;;27.99;31.04;102051.41;5078908;27;45779;-84
2023/04/03 17:53:54;;;;;;;;;2.00;2.00;;;;;27.99;31.70;102058.72;5082498;27;45429;-82
2023/04/03 17:56:22;;;;;;;;;3.00;3.00;;;;;27.98;31.58;102059.75;5082657;27;45649;-82
2023/04/03 17:58:49;;;;;;;;;1.00;1.00;;;;;27.98;31.49;102063.34;5100059;27;46179;-83
2023/04/03 18:01:42;;;;;;;;;2.00;2.00;;;;;27.97;31.36;102067.09;5094237;27;45416;-83
2023/04/03 18:04:07;;;;;;;;;3.33;3.33;;;;;27.97;31.60;102063.50;5081049;27;45558;-84
2023/04/03 18:06:40;;;;;;;;;2.33;2.00;;;;;27.95;31.51;102046.47;5093525;27;45329;-84
2023/04/03 18:09:16;;;;;;;;;1.33;1.33;;;;;27.97;30.99;102058.91;5091763;27;45927;-84
2023/04/03 18:11:44;;;;;;;;;1.67;1.67;;;;;27.95;31.03;102044.56;5094702;27;45448;-83
2023/04/03 18:14:13;;;;;;;;;1.67;1.67;;;;;27.87;30.88;102037.22;5085446;27;45473;-85
2023/04/03 18:16:38;;;;;;;;;3.00;1.67;;;;;27.92;31.32;102053.09;5083243;27;45419;-86
2023/04/03 18:19:06;;;;;;;;;1.67;1.67;;;;;27.92;31.08;102060.41;5084855;27;45437;-85
2023/04/03 18:21:31;;;;;;;;;3.00;2.33;;;;;27.85;31.23;102050.19;5083549;27;45714;-86
2023/04/03 18:23:57;;;;;;;;;2.00;2.00;;;;;27.83;31.32;102051.38;5081034;27;45552;-86
2023/04/03 18:26:27;;;;;;;;;2.33;2.33;;;;;27.85;31.51;102061.09;5085389;27;45991;-86
2023/04/03 18:28:57;;;;;;;;;3.00;3.00;;;;;27.77;31.34;102052.00;5077772;27;45496;-88
2023/04/03 18:31:25;;;;;;;;;2.00;2.00;;;;;27.81;31.39;102064.31;5081661;27;45474;-85
2023/04/03 18:33:53;;;;;;;;;2.00;2.00;;;;;27.77;30.84;102054.75;5082759;27;45317;-90